Westville, Connecticut
Current Conditions -  °F | °C
As of 6:53 AM on Friday 24 Oct 2014 (Local Time) from KHVN Reporting Station
Overcast Overcast  
Wind Chill: 11°   Ceiling: 4900
Heat Index: 11°   Visibility: 10mi
Dew Point:   Wind: 7mph
Humidity: 74%   Direction: 340°NNW
Pressure: 29.76"   Gusts: 17mph
Location:  41.3258°N, 72.9705°W
Report Text: KHVN 241053Z 34006G15KT 10SM SCT028 OVC049 11/07 A2976 RMK AO2 RAB22E53 SLP076 P0000 T01110067
Loading
Personal Weather Stations






























Interactive Weather Map
Tropical Storm Tracking
New forecast layout! Learn more

10-Day Weather Forecast

Advertisements
Track Severe Weather on mobile